Porto Santo Airport Vila Baleira PT
ICAO: LPPS
IATA: PXO
Category: Medium
Scheduled Services: Yes

Elevation: 341 ft
TransAlt. 5000 ft.

Airport Communications:
GCA:123.3
TWR:118.4

LPPS Zoom In..

Runways:

(A) RW 18 length 7871 ft width 148 ft
---- / hdg 184

(B) RW 36 length 7871 ft width 148 ft
---- / hdg 4

Location; LPPS
Day. 21 / Time. 23.30 Zulu
* QNH: 1013
* Temperature: 15° c. 59°f.
* Wind from: 010° Speed 05 kn.
Dewpoint: 09° c.
Visibility: 10 km or more.
Clouds: Scattered 1500 ft.
Clouds: Scattered 3000 ft.

LPPS 212330Z 01005KT 9999 SCT015 SCT030 15/09 Q1013


Wind From 010°
Speed 05 kn.

YouTube Music Video
 
jpsmedia.com for Web Design  worldairports.se 2018   terms of use